Time;durP1;ratioP1;P1;durP2;ratioP2;P2;SDS_P1;SDS_P2;PMS_P1;PMS_P2;Temp;Humidity;BMP_temperature;BMP_pressure;BME280_temperature;BME280_humidity;BME280_pressure;Samples;Min_cycle;Max_cycle;Signal;HPM_P1;HPM_P2
2022/03/10 00:00:28;;;;;;;38.38;25.85;;;;;;;;;;5012892;28;93046;-67
2022/03/10 00:02:55;;;;;;;41.92;26.00;;;;;;;;;;5011881;28;94257;-67
2022/03/10 00:05:21;;;;;;;43.30;26.70;;;;;;;;;;5016656;28;91678;-67
2022/03/10 00:07:48;;;;;;;58.15;28.65;;;;;;;;;;5012224;28;93095;-67
2022/03/10 00:10:14;;;;;;;39.85;27.13;;;;;;;;;;5012677;28;92938;-67
2022/03/10 00:12:50;;;;;;;48.42;26.15;;;;;;;;;;5011565;28;94909;-67
2022/03/10 00:15:19;;;;;;;46.55;25.90;;;;;;;;;;5012260;28;93419;-66
2022/03/10 00:17:45;;;;;;;43.03;27.63;;;;;;;;;;5012619;28;92776;-67
2022/03/10 00:20:12;;;;;;;43.58;27.42;;;;;;;;;;5012969;28;94738;-69
2022/03/10 00:22:51;;;;;;;41.05;26.00;;;;;;;;;;5011937;28;93852;-67
2022/03/10 00:25:18;;;;;;;49.60;27.45;;;;;;;;;;5010956;28;92993;-67
2022/03/10 00:27:45;;;;;;;46.53;26.77;;;;;;;;;;5015642;28;94299;-67
2022/03/10 00:30:11;;;;;;;41.63;26.20;;;;;;;;;;5011978;28;91756;-69
2022/03/10 00:32:42;;;;;;;45.20;26.08;;;;;;;;;;5012888;28;92439;-69
2022/03/10 00:35:09;;;;;;;41.75;25.80;;;;;;;;;;5012196;28;93210;-67
2022/03/10 00:37:36;;;;;;;52.35;26.90;;;;;;;;;;5010443;28;95250;-67
2022/03/10 00:40:02;;;;;;;35.25;24.70;;;;;;;;;;5012474;28;94701;-67
2022/03/10 00:42:34;;;;;;;40.47;26.38;;;;;;;;;;5012004;28;94942;-67
2022/03/10 00:45:00;;;;;;;45.70;24.98;;;;;;;;;;5011771;28;94281;-69
2022/03/10 00:47:27;;;;;;;40.67;25.77;;;;;;;;;;5012313;28;95209;-69
2022/03/10 00:49:54;;;;;;;37.30;22.67;;;;;;;;;;5015011;28;94272;-68
2022/03/10 00:52:21;;;;;;;36.33;25.30;;;;;;;;;;5009659;28;93945;-67
2022/03/10 00:54:47;;;;;;;43.10;23.25;;;;;;;;;;5012903;28;93297;-69
2022/03/10 00:57:13;;;;;;;41.42;23.63;;;;;;;;;;5011463;28;92629;-67
2022/03/10 00:59:40;;;;;;;37.38;23.95;;;;;;;;;;5011714;28;94002;-67
2022/03/10 01:02:07;;;;;;;38.15;22.50;;;;;;;;;;5008967;28;96452;-67
2022/03/10 01:04:34;;;;;;;38.17;23.65;;;;;;;;;;5011953;28;92983;-68
2022/03/10 01:07:00;;;;;;;38.63;24.50;;;;;;;;;;5011548;28;94014;-67
2022/03/10 01:09:26;;;;;;;35.90;23.10;;;;;;;;;;5011477;28;94233;-67
2022/03/10 01:11:53;;;;;;;39.13;24.63;;;;;;;;;;5015109;28;92453;-67
2022/03/10 01:14:19;;;;;;;36.42;23.30;;;;;;;;;;5010985;28;94116;-67
2022/03/10 01:16:46;;;;;;;35.80;22.95;;;;;;;;;;5012117;28;92502;-67
2022/03/10 01:19:14;;;;;;;41.88;23.73;;;;;;;;;;5011713;27;93126;-67
2022/03/10 01:21:41;;;;;;;31.17;22.55;;;;;;;;;;5011527;28;94221;-67
2022/03/10 01:24:08;;;;;;;34.95;22.67;;;;;;;;;;5011579;28;93015;-67
2022/03/10 01:26:34;;;;;;;40.33;24.30;;;;;;;;;;5010343;28;95239;-67
2022/03/10 01:29:00;;;;;;;41.08;23.13;;;;;;;;;;5010823;28;94038;-67
2022/03/10 01:31:27;;;;;;;43.80;23.90;;;;;;;;;;5011542;28;93215;-67
2022/03/10 01:33:53;;;;;;;36.55;23.98;;;;;;;;;;5013707;28;94791;-67
2022/03/10 01:36:20;;;;;;;37.25;24.33;;;;;;;;;;5011640;28;92451;-67
2022/03/10 01:38:46;;;;;;;40.45;25.20;;;;;;;;;;5011081;28;93589;-67
2022/03/10 01:41:12;;;;;;;35.42;23.98;;;;;;;;;;5010955;28;94123;-67
2022/03/10 01:43:57;;;;;;;34.55;23.73;;;;;;;;;;5012124;28;92071;-67
2022/03/10 01:46:24;;;;;;;37.88;23.33;;;;;;;;;;5011200;28;93291;-67
2022/03/10 01:48:51;;;;;;;35.88;23.17;;;;;;;;;;5010680;28;94110;-67
2022/03/10 01:51:17;;;;;;;37.13;24.48;;;;;;;;;;5009169;28;94866;-67
2022/03/10 01:53:44;;;;;;;42.10;24.50;;;;;;;;;;5014677;28;96880;-68
2022/03/10 01:56:11;;;;;;;33.90;22.52;;;;;;;;;;5010773;28;92436;-67
2022/03/10 01:58:38;;;;;;;35.97;23.95;;;;;;;;;;5011451;28;93161;-67
2022/03/10 02:01:04;;;;;;;31.77;21.48;;;;;;;;;;5011232;28;94059;-67
2022/03/10 02:03:31;;;;;;;38.35;22.85;;;;;;;;;;5010620;28;93112;-67
2022/03/10 02:05:57;;;;;;;41.80;23.08;;;;;;;;;;5010982;28;92954;-67
2022/03/10 02:11:10;;;;;;;34.75;22.73;;;;;;;;;;5010913;28;92487;-67
2022/03/10 02:13:36;;;;;;;34.70;23.30;;;;;;;;;;5014545;28;93064;-67
2022/03/10 02:18:47;;;;;;;36.78;24.38;;;;;;;;;;5014249;28;96479;-67
2022/03/10 02:21:14;;;;;;;34.85;23.48;;;;;;;;;;5014178;28;93103;-67
2022/03/10 02:23:41;;;;;;;37.75;22.55;;;;;;;;;;5013841;28;92978;-67
2022/03/10 02:26:08;;;;;;;31.55;22.42;;;;;;;;;;5014633;28;94047;-67
2022/03/10 02:28:35;;;;;;;31.60;22.23;;;;;;;;;;5014076;28;94058;-67
2022/03/10 02:31:02;;;;;;;35.88;21.88;;;;;;;;;;5014174;28;92535;-67
2022/03/10 02:33:28;;;;;;;35.72;22.65;;;;;;;;;;5014479;28;94371;-67
2022/03/10 02:35:54;;;;;;;30.50;20.98;;;;;;;;;;5014517;28;93240;-67
2022/03/10 02:38:21;;;;;;;34.42;22.35;;;;;;;;;;5016244;28;92605;-67
2022/03/10 02:40:47;;;;;;;38.47;22.63;;;;;;;;;;5012598;28;96622;-67
2022/03/10 02:43:14;;;;;;;35.55;22.38;;;;;;;;;;5014067;28;93472;-67
2022/03/10 02:45:40;;;;;;;34.80;22.17;;;;;;;;;;5013938;28;92930;-67
2022/03/10 02:48:07;;;;;;;33.83;22.13;;;;;;;;;;5013882;28;94186;-67
2022/03/10 02:50:33;;;;;;;32.22;20.92;;;;;;;;;;5011860;27;92501;-66
2022/03/10 02:53:00;;;;;;;31.67;21.80;;;;;;;;;;5013716;28;93156;-67
2022/03/10 02:55:26;;;;;;;32.53;21.17;;;;;;;;;;5013310;28;93185;-66
2022/03/10 02:57:53;;;;;;;35.10;22.55;;;;;;;;;;5014260;28;91916;-68
2022/03/10 03:00:19;;;;;;;30.88;21.00;;;;;;;;;;5016661;28;93402;-69
2022/03/10 03:02:46;;;;;;;31.30;21.63;;;;;;;;;;5013832;28;92596;-66
2022/03/10 03:05:13;;;;;;;39.33;21.05;;;;;;;;;;5011837;28;95118;-67
2022/03/10 03:07:41;;;;;;;34.33;21.05;;;;;;;;;;5013720;28;93560;-66
2022/03/10 03:10:08;;;;;;;34.42;20.90;;;;;;;;;;5013632;28;92523;-66
2022/03/10 03:12:41;;;;;;;35.95;21.73;;;;;;;;;;5013892;28;93101;-66
2022/03/10 03:15:08;;;;;;;30.85;20.10;;;;;;;;;;5013491;28;93180;-67
2022/03/10 03:17:34;;;;;;;32.13;20.08;;;;;;;;;;5013936;28;92489;-67
2022/03/10 03:20:01;;;;;;;32.15;21.10;;;;;;;;;;5011811;28;94224;-67
2022/03/10 03:22:27;;;;;;;37.60;22.50;;;;;;;;;;5016772;28;93563;-69
2022/03/10 03:24:53;;;;;;;31.23;20.17;;;;;;;;;;5012708;28;93258;-68
2022/03/10 03:27:20;;;;;;;30.65;21.27;;;;;;;;;;5012795;28;93589;-67
2022/03/10 03:29:47;;;;;;;33.72;22.23;;;;;;;;;;5014466;28;94857;-66
2022/03/10 03:32:13;;;;;;;31.92;20.80;;;;;;;;;;5013335;28;96462;-68
2022/03/10 03:34:40;;;;;;;32.50;21.33;;;;;;;;;;5012702;28;94083;-67
2022/03/10 03:37:06;;;;;;;42.63;21.90;;;;;;;;;;5012692;28;92895;-67
2022/03/10 03:39:33;;;;;;;32.00;20.45;;;;;;;;;;5013412;28;93915;-67
2022/03/10 03:41:59;;;;;;;32.83;21.38;;;;;;;;;;5012372;28;94919;-67
2022/03/10 03:44:25;;;;;;;30.85;20.98;;;;;;;;;;4997000;28;92446;-67
2022/03/10 03:46:52;;;;;;;29.08;19.98;;;;;;;;;;4993922;28;92566;-68
2022/03/10 03:49:18;;;;;;;34.63;20.90;;;;;;;;;;5011977;28;94032;-67
2022/03/10 03:51:45;;;;;;;31.08;20.08;;;;;;;;;;5012612;28;94369;-67
2022/03/10 03:54:11;;;;;;;36.22;21.63;;;;;;;;;;5009883;28;97444;-67
2022/03/10 03:56:37;;;;;;;29.15;20.08;;;;;;;;;;5013620;28;92451;-67
2022/03/10 03:59:04;;;;;;;28.55;20.50;;;;;;;;;;5013317;28;93822;-67
2022/03/10 04:01:30;;;;;;;28.77;19.90;;;;;;;;;;5011855;28;94766;-68
2022/03/10 04:03:57;;;;;;;30.40;19.50;;;;;;;;;;5015829;28;92456;-67
2022/03/10 04:06:24;;;;;;;36.17;21.08;;;;;;;;;;5012858;28;93525;-67
2022/03/10 04:08:50;;;;;;;30.80;20.58;;;;;;;;;;5011614;28;93833;-67
2022/03/10 04:11:17;;;;;;;32.35;20.83;;;;;;;;;;5013050;28;94169;-67
2022/03/10 04:13:44;;;;;;;25.88;19.40;;;;;;;;;;5012558;28;94187;-67
2022/03/10 04:16:10;;;;;;;27.02;19.63;;;;;;;;;;5012128;28;92444;-67
2022/03/10 04:18:37;;;;;;;33.00;20.63;;;;;;;;;;5011051;28;94928;-67
2022/03/10 04:21:03;;;;;;;34.58;21.27;;;;;;;;;;5012718;28;93181;-67
2022/03/10 04:23:30;;;;;;;29.45;19.73;;;;;;;;;;5013165;27;92512;-67
2022/03/10 04:25:56;;;;;;;28.63;19.95;;;;;;;;;;5015460;28;94900;-67
2022/03/10 04:28:22;;;;;;;29.25;21.00;;;;;;;;;;5012352;28;92469;-67
2022/03/10 04:30:49;;;;;;;32.40;20.08;;;;;;;;;;5011873;28;94764;-67
2022/03/10 04:33:16;;;;;;;28.92;18.85;;;;;;;;;;5012033;28;94259;-67
2022/03/10 04:35:43;;;;;;;30.13;20.65;;;;;;;;;;5011588;28;91765;-67
2022/03/10 04:38:10;;;;;;;29.73;20.58;;;;;;;;;;5011883;28;92739;-67
2022/03/10 04:40:37;;;;;;;31.80;20.33;;;;;;;;;;5012033;28;94230;-66
2022/03/10 04:43:04;;;;;;;27.58;20.13;;;;;;;;;;5010160;28;95378;-67
2022/03/10 04:45:30;;;;;;;30.40;20.38;;;;;;;;;;5010619;28;95305;-67
2022/03/10 04:47:56;;;;;;;31.40;20.35;;;;;;;;;;5015700;28;93579;-67
2022/03/10 04:50:24;;;;;;;35.85;18.90;;;;;;;;;;5010370;28;94040;-67
2022/03/10 04:52:51;;;;;;;34.00;20.80;;;;;;;;;;5011503;28;93494;-68
2022/03/10 04:55:17;;;;;;;26.63;19.55;;;;;;;;;;5011078;28;92432;-68
2022/03/10 04:57:49;;;;;;;27.10;19.85;;;;;;;;;;5010565;28;93389;-68
2022/03/10 05:00:18;;;;;;;27.92;19.80;;;;;;;;;;5011532;28;93736;-67
2022/03/10 05:02:46;;;;;;;29.20;19.17;;;;;;;;;;5011910;28;92469;-67
2022/03/10 05:05:13;;;;;;;33.65;21.05;;;;;;;;;;5010898;28;94076;-67
2022/03/10 05:07:40;;;;;;;30.00;20.13;;;;;;;;;;5010315;28;96668;-67
2022/03/10 05:10:08;;;;;;;39.03;20.60;;;;;;;;;;5015255;28;92478;-67
2022/03/10 05:12:42;;;;;;;32.72;20.38;;;;;;;;;;5009646;28;95257;-67
2022/03/10 05:15:08;;;;;;;24.27;18.70;;;;;;;;;;5011149;27;92510;-67
2022/03/10 05:17:35;;;;;;;28.23;19.08;;;;;;;;;;5012552;28;93150;-67
2022/03/10 05:20:06;;;;;;;34.33;20.15;;;;;;;;;;5010129;28;94281;-67
2022/03/10 05:22:41;;;;;;;27.92;20.60;;;;;;;;;;5012118;28;93134;-67
2022/03/10 05:25:07;;;;;;;40.13;20.92;;;;;;;;;;5011641;28;94386;-67
2022/03/10 05:27:36;;;;;;;38.78;20.45;;;;;;;;;;5011084;28;94080;-67
2022/03/10 05:30:03;;;;;;;30.13;20.65;;;;;;;;;;5010091;28;92471;-67
2022/03/10 05:32:29;;;;;;;30.08;20.05;;;;;;;;;;5011815;28;96553;-67
2022/03/10 05:34:55;;;;;;;30.38;20.35;;;;;;;;;;5012340;28;92435;-68
2022/03/10 05:37:22;;;;;;;30.75;20.23;;;;;;;;;;5011099;28;93205;-67
2022/03/10 05:39:49;;;;;;;28.27;20.27;;;;;;;;;;5011667;27;93828;-67
2022/03/10 05:42:15;;;;;;;35.97;20.33;;;;;;;;;;5010923;28;92546;-67
2022/03/10 05:44:42;;;;;;;34.25;20.63;;;;;;;;;;5011093;27;93532;-67
2022/03/10 05:47:09;;;;;;;37.40;21.63;;;;;;;;;;5011022;28;94239;-67
2022/03/10 05:49:36;;;;;;;33.15;21.88;;;;;;;;;;5015528;28;91729;-67
2022/03/10 05:52:03;;;;;;;37.95;21.63;;;;;;;;;;5014817;28;92683;-67
2022/03/10 05:54:29;;;;;;;36.22;21.90;;;;;;;;;;5017377;28;93403;-67
2022/03/10 05:56:56;;;;;;;37.30;21.65;;;;;;;;;;5012392;28;96238;-67
2022/03/10 05:59:22;;;;;;;39.13;21.92;;;;;;;;;;5015185;28;93446;-67
2022/03/10 06:01:49;;;;;;;33.67;21.98;;;;;;;;;;5011981;28;92811;-67
2022/03/10 06:04:15;;;;;;;29.10;20.58;;;;;;;;;;5014870;28;93548;-67
2022/03/10 06:06:45;;;;;;;32.67;22.00;;;;;;;;;;5014120;28;93358;-67
2022/03/10 06:09:11;;;;;;;30.00;20.55;;;;;;;;;;5014011;28;92919;-67
2022/03/10 06:11:38;;;;;;;32.13;21.05;;;;;;;;;;5014134;28;93909;-67
2022/03/10 06:14:04;;;;;;;32.17;20.70;;;;;;;;;;5018322;28;93503;-67
2022/03/10 06:16:30;;;;;;;38.05;20.90;;;;;;;;;;5015158;28;93976;-67
2022/03/10 06:18:58;;;;;;;31.58;21.80;;;;;;;;;;5014112;28;92815;-67
2022/03/10 06:21:26;;;;;;;33.30;21.38;;;;;;;;;;5013658;28;95468;-67
2022/03/10 06:23:52;;;;;;;53.92;24.17;;;;;;;;;;5013911;28;96413;-67
2022/03/10 06:26:19;;;;;;;37.33;22.42;;;;;;;;;;5015526;28;94744;-67
2022/03/10 06:28:45;;;;;;;36.03;21.95;;;;;;;;;;5015936;28;92875;-67
2022/03/10 06:31:12;;;;;;;33.50;21.85;;;;;;;;;;5014379;28;92960;-67
2022/03/10 06:33:38;;;;;;;34.95;22.27;;;;;;;;;;5014438;28;93488;-67
2022/03/10 06:36:05;;;;;;;41.30;22.10;;;;;;;;;;5016791;28;92631;-67
2022/03/10 06:38:32;;;;;;;34.30;21.83;;;;;;;;;;5016435;27;92813;-67
2022/03/10 06:40:59;;;;;;;38.75;22.40;;;;;;;;;;5014702;28;93715;-67
2022/03/10 06:43:25;;;;;;;39.78;22.83;;;;;;;;;;5014225;27;92438;-66
2022/03/10 06:45:51;;;;;;;33.45;21.85;;;;;;;;;;5012149;28;96460;-66
2022/03/10 06:48:18;;;;;;;31.55;20.40;;;;;;;;;;5014143;28;92458;-66
2022/03/10 06:50:44;;;;;;;31.75;19.73;;;;;;;;;;5013361;28;93940;-67
2022/03/10 06:53:12;;;;;;;39.55;22.65;;;;;;;;;;5012570;28;94178;-67
2022/03/10 06:55:38;;;;;;;39.58;20.60;;;;;;;;;;5014304;28;92916;-66
2022/03/10 06:58:05;;;;;;;37.22;22.52;;;;;;;;;;5016748;28;93067;-67
2022/03/10 07:00:32;;;;;;;35.10;21.15;;;;;;;;;;5013136;28;92501;-67
2022/03/10 07:02:58;;;;;;;32.00;21.58;;;;;;;;;;5014164;28;93319;-67
2022/03/10 07:05:25;;;;;;;35.50;22.77;;;;;;;;;;5013052;28;93360;-67
2022/03/10 07:07:51;;;;;;;37.17;20.73;;;;;;;;;;5014356;28;92475;-66
2022/03/10 07:10:21;;;;;;;34.25;20.08;;;;;;;;;;5012321;28;94854;-67
2022/03/10 07:12:48;;;;;;;32.30;21.88;;;;;;;;;;5013455;28;92690;-67
2022/03/10 07:15:14;;;;;;;39.00;22.30;;;;;;;;;;5017602;28;93623;-67
2022/03/10 07:17:41;;;;;;;36.33;20.52;;;;;;;;;;5019197;27;93001;-66
2022/03/10 07:20:08;;;;;;;36.72;20.98;;;;;;;;;;5012380;27;93004;-66
2022/03/10 07:22:34;;;;;;;35.08;21.83;;;;;;;;;;5011088;28;94218;-67
2022/03/10 07:25:01;;;;;;;37.50;21.63;;;;;;;;;;5010341;28;93550;-66
2022/03/10 07:27:28;;;;;;;27.98;19.35;;;;;;;;;;5011835;28;92204;-66
2022/03/10 07:29:54;;;;;;;36.65;21.17;;;;;;;;;;5013757;28;93708;-66
2022/03/10 07:32:22;;;;;;;28.75;20.15;;;;;;;;;;5012524;28;94147;-67
2022/03/10 07:34:49;;;;;;;27.35;19.20;;;;;;;;;;5010411;28;95311;-67
2022/03/10 07:37:16;;;;;;;28.98;20.02;;;;;;;;;;5013064;28;94277;-67
2022/03/10 07:39:42;;;;;;;29.20;19.98;;;;;;;;;;5013002;28;93454;-67
2022/03/10 07:42:08;;;;;;;31.25;19.13;;;;;;;;;;5016941;28;92492;-67
2022/03/10 07:44:35;;;;;;;27.13;19.23;;;;;;;;;;5013712;28;94534;-67
2022/03/10 07:47:01;;;;;;;31.02;20.63;;;;;;;;;;5012765;28;92649;-67
2022/03/10 07:49:29;;;;;;;29.60;18.75;;;;;;;;;;5012855;28;93304;-67
2022/03/10 07:51:55;;;;;;;36.05;20.73;;;;;;;;;;5013917;28;93433;-67
2022/03/10 07:54:22;;;;;;;31.35;18.42;;;;;;;;;;5012602;28;92680;-67
2022/03/10 07:56:48;;;;;;;39.92;19.17;;;;;;;;;;5010517;28;94149;-67
2022/03/10 07:59:15;;;;;;;32.28;21.10;;;;;;;;;;5009608;28;96541;-67
2022/03/10 08:01:41;;;;;;;35.58;21.15;;;;;;;;;;5010840;28;93011;-67
2022/03/10 08:04:08;;;;;;;26.25;19.25;;;;;;;;;;5015082;28;94010;-67
2022/03/10 08:06:34;;;;;;;30.23;19.02;;;;;;;;;;5013007;28;92487;-67
2022/03/10 08:09:02;;;;;;;31.85;19.73;;;;;;;;;;5011596;28;93908;-67
2022/03/10 08:11:28;;;;;;;32.13;19.60;;;;;;;;;;5007317;28;95124;-67
2022/03/10 08:13:55;;;;;;;33.08;18.63;;;;;;;;;;5008600;28;92911;-67
2022/03/10 08:16:21;;;;;;;33.72;19.42;;;;;;;;;;5012284;28;93947;-67
2022/03/10 08:18:49;;;;;;;27.73;17.95;;;;;;;;;;5010953;28;93943;-67
2022/03/10 08:21:16;;;;;;;33.53;19.10;;;;;;;;;;5011244;28;92455;-66
2022/03/10 08:23:42;;;;;;;30.10;20.38;;;;;;;;;;5014382;28;94810;-66
2022/03/10 08:26:10;;;;;;;31.88;19.38;;;;;;;;;;5007128;28;92712;-66
2022/03/10 08:28:37;;;;;;;27.25;19.58;;;;;;;;;;5006847;28;94009;-66
2022/03/10 08:31:04;;;;;;;30.20;19.55;;;;;;;;;;5007722;28;92875;-66
2022/03/10 08:33:31;;;;;;;36.53;21.17;;;;;;;;;;5009452;28;92573;-66
2022/03/10 08:35:57;;;;;;;33.03;18.90;;;;;;;;;;5010057;28;93947;-66
2022/03/10 08:38:25;;;;;;;26.58;18.48;;;;;;;;;;5011171;28;94187;-66
2022/03/10 08:40:52;;;;;;;28.55;18.67;;;;;;;;;;5011841;28;91790;-66
2022/03/10 08:43:20;;;;;;;25.23;18.58;;;;;;;;;;5010775;28;93691;-66
2022/03/10 08:45:46;;;;;;;32.58;19.35;;;;;;;;;;5010983;28;94132;-67
2022/03/10 08:48:13;;;;;;;34.67;18.55;;;;;;;;;;5008509;28;95664;-67
2022/03/10 08:50:40;;;;;;;34.50;19.38;;;;;;;;;;5009367;28;94062;-67
2022/03/10 08:53:06;;;;;;;28.25;18.30;;;;;;;;;;5012411;28;92432;-66
2022/03/10 08:55:32;;;;;;;26.80;18.55;;;;;;;;;;4997513;28;93083;-67
2022/03/10 08:58:00;;;;;;;27.25;17.92;;;;;;;;;;4991696;28;93297;-67
2022/03/10 09:00:26;;;;;;;25.20;19.15;;;;;;;;;;4992449;28;92442;-66
2022/03/10 09:02:55;;;;;;;37.15;17.90;;;;;;;;;;4991763;28;92934;-67
2022/03/10 09:05:23;;;;;;;28.92;18.75;;;;;;;;;;5006811;28;92522;-66
2022/03/10 09:07:50;;;;;;;25.15;17.58;;;;;;;;;;5015791;28;92424;-66
2022/03/10 09:10:16;;;;;;;26.00;18.20;;;;;;;;;;5012154;28;93515;-67
2022/03/10 09:12:43;;;;;;;27.42;19.60;;;;;;;;;;5009891;28;94841;-67
2022/03/10 09:15:14;;;;;;;26.45;19.15;;;;;;;;;;5011730;28;96339;-67
2022/03/10 09:17:40;;;;;;;26.67;17.77;;;;;;;;;;5011141;28;92732;-66
2022/03/10 09:20:07;;;;;;;31.00;20.02;;;;;;;;;;5011966;28;92413;-67
2022/03/10 09:22:34;;;;;;;26.27;18.48;;;;;;;;;;5010860;28;93128;-67
2022/03/10 09:25:02;;;;;;;30.00;18.90;;;;;;;;;;5010537;28;94528;-66
2022/03/10 09:27:29;;;;;;;31.33;19.15;;;;;;;;;;5011735;28;93090;-66
2022/03/10 09:29:56;;;;;;;31.30;18.88;;;;;;;;;;5015422;28;94025;-66
2022/03/10 09:32:23;;;;;;;33.97;18.85;;;;;;;;;;5011387;28;92787;-67
2022/03/10 09:34:49;;;;;;;30.65;18.67;;;;;;;;;;5012344;28;93368;-67
2022/03/10 09:37:15;;;;;;;32.72;19.77;;;;;;;;;;5009364;28;95662;-67
2022/03/10 09:39:42;;;;;;;32.00;19.30;;;;;;;;;;5010065;28;93023;-67
2022/03/10 09:42:09;;;;;;;29.25;18.02;;;;;;;;;;5011733;28;94058;-66
2022/03/10 09:44:36;;;;;;;27.83;19.42;;;;;;;;;;5011349;28;93087;-67
2022/03/10 09:47:03;;;;;;;35.67;19.85;;;;;;;;;;5011154;28;92476;-67
2022/03/10 09:49:36;;;;;;;29.83;19.63;;;;;;;;;;5011551;28;93517;-67
2022/03/10 09:52:02;;;;;;;26.70;18.83;;;;;;;;;;5014437;28;94192;-67
2022/03/10 09:54:29;;;;;;;28.83;17.52;;;;;;;;;;5011573;28;93266;-67
2022/03/10 09:56:56;;;;;;;30.25;19.75;;;;;;;;;;5010186;28;94254;-66
2022/03/10 09:59:25;;;;;;;31.50;21.00;;;;;;;;;;5011198;28;92769;-67
2022/03/10 10:01:53;;;;;;;34.35;20.80;;;;;;;;;;5008922;28;95115;-67
2022/03/10 10:04:20;;;;;;;31.60;19.42;;;;;;;;;;5011223;28;93217;-67
2022/03/10 10:07:10;;;;;;;29.92;20.05;;;;;;;;;;5010833;28;92897;-67
2022/03/10 10:09:45;;;;;;;34.83;21.42;;;;;;;;;;5011834;28;93353;-67
2022/03/10 10:12:13;;;;;;;24.95;17.67;;;;;;;;;;5010594;28;93639;-66
2022/03/10 10:14:40;;;;;;;33.40;19.20;;;;;;;;;;5009913;28;93171;-66
2022/03/10 10:17:07;;;;;;;38.50;20.52;;;;;;;;;;5011582;28;93152;-66
2022/03/10 10:19:37;;;;;;;38.60;21.00;;;;;;;;;;5011553;28;91741;-67
2022/03/10 10:22:24;;;;;;;37.20;21.90;;;;;;;;;;5010289;28;93211;-67
2022/03/10 10:25:02;;;;;;;36.95;19.75;;;;;;;;;;5011339;28;94554;-67
2022/03/10 10:27:32;;;;;;;27.65;18.75;;;;;;;;;;5009714;28;95495;-67
2022/03/10 10:30:00;;;;;;;28.27;19.85;;;;;;;;;;5009546;28;95464;-67
2022/03/10 10:32:52;;;;;;;24.55;18.00;;;;;;;;;;5011149;28;93575;-67
2022/03/10 10:35:22;;;;;;;29.97;19.43;;;;;;;;;;5015824;28;92925;-69
2022/03/10 10:37:51;;;;;;;31.30;20.65;;;;;;;;;;5014485;28;93231;-67
2022/03/10 10:40:22;;;;;;;28.42;19.30;;;;;;;;;;5014162;28;92455;-67
2022/03/10 10:42:51;;;;;;;29.15;20.20;;;;;;;;;;5013564;28;93451;-67
2022/03/10 10:45:28;;;;;;;28.33;18.88;;;;;;;;;;5015053;28;92698;-67
2022/03/10 10:48:12;;;;;;;23.77;18.73;;;;;;;;;;5013129;28;92829;-66
2022/03/10 10:50:40;;;;;;;30.85;20.08;;;;;;;;;;5013707;28;93948;-66
2022/03/10 10:53:07;;;;;;;34.25;20.48;;;;;;;;;;5013263;27;95872;-66
2022/03/10 10:55:38;;;;;;;28.92;18.48;;;;;;;;;;5014930;27;92574;-66
2022/03/10 10:58:05;;;;;;;30.23;20.60;;;;;;;;;;5017416;28;93452;-66
2022/03/10 11:00:39;;;;;;;30.27;18.35;;;;;;;;;;5013927;28;92443;-67
2022/03/10 11:03:18;;;;;;;32.90;18.40;;;;;;;;;;5012841;28;93880;-66
2022/03/10 11:05:45;;;;;;;29.67;19.50;;;;;;;;;;5014580;28;93262;-67
2022/03/10 11:08:11;;;;;;;26.85;20.83;;;;;;;;;;5013617;28;92509;-67
2022/03/10 11:10:38;;;;;;;27.42;17.70;;;;;;;;;;5013731;28;93984;-67
2022/03/10 11:13:04;;;;;;;26.20;19.65;;;;;;;;;;5013932;28;93160;-67
2022/03/10 11:15:31;;;;;;;29.30;20.80;;;;;;;;;;5012487;28;93296;-67
2022/03/10 11:17:58;;;;;;;31.23;20.33;;;;;;;;;;5011628;28;94828;-67
2022/03/10 11:20:25;;;;;;;27.80;17.13;;;;;;;;;;5016692;28;94034;-67
2022/03/10 11:22:58;;;;;;;29.08;20.02;;;;;;;;;;5014293;28;93440;-67
2022/03/10 11:25:37;;;;;;;30.50;20.58;;;;;;;;;;5012901;28;93389;-67
2022/03/10 11:28:09;;;;;;;30.95;19.02;;;;;;;;;;5013974;28;92478;-67
2022/03/10 11:30:36;;;;;;;34.65;20.05;;;;;;;;;;5014131;28;92430;-67
2022/03/10 11:33:12;;;;;;;32.92;19.88;;;;;;;;;;5012347;28;93180;-67
2022/03/10 11:35:39;;;;;;;30.02;19.45;;;;;;;;;;5014274;28;91828;-68
2022/03/10 11:38:07;;;;;;;27.63;19.58;;;;;;;;;;5013945;28;92464;-67
2022/03/10 11:40:41;;;;;;;26.52;17.88;;;;;;;;;;5013077;28;94359;-67
2022/03/10 11:43:08;;;;;;;30.63;18.48;;;;;;;;;;5015638;28;94898;-68
2022/03/10 11:45:35;;;;;;;23.65;18.10;;;;;;;;;;5012211;28;93923;-67
2022/03/10 11:48:20;;;;;;;26.73;18.98;;;;;;;;;;5013663;28;93281;-67
2022/03/10 11:50:46;;;;;;;31.38;19.73;;;;;;;;;;5013735;28;93252;-67
2022/03/10 11:53:13;;;;;;;27.27;18.48;;;;;;;;;;5012912;28;93440;-67
2022/03/10 11:55:50;;;;;;;32.60;19.73;;;;;;;;;;5013687;28;93021;-67
2022/03/10 11:58:17;;;;;;;30.65;18.63;;;;;;;;;;5013007;28;93928;-67
2022/03/10 12:00:44;;;;;;;26.17;18.92;;;;;;;;;;5013120;28;92724;-67
2022/03/10 12:03:37;;;;;;;32.42;20.65;;;;;;;;;;5012433;28;92948;-67
2022/03/10 12:06:07;;;;;;;29.67;17.63;;;;;;;;;;5015746;28;93963;-67
2022/03/10 12:08:36;;;;;;;27.52;20.08;;;;;;;;;;5011103;28;95045;-67
2022/03/10 12:11:03;;;;;;;24.17;17.35;;;;;;;;;;5013681;28;94289;-67
2022/03/10 12:13:32;;;;;;;29.40;19.50;;;;;;;;;;5011842;28;93025;-67
2022/03/10 12:15:59;;;;;;;33.15;18.58;;;;;;;;;;5013256;28;92466;-67
2022/03/10 12:18:28;;;;;;;29.23;18.17;;;;;;;;;;5013024;28;93033;-67
2022/03/10 12:20:55;;;;;;;26.05;19.38;;;;;;;;;;5012408;28;92512;-67
2022/03/10 12:23:28;;;;;;;27.60;19.60;;;;;;;;;;5012717;28;92482;-68
2022/03/10 12:25:59;;;;;;;30.10;18.77;;;;;;;;;;5016432;28;94474;-67
2022/03/10 12:28:31;;;;;;;32.58;19.40;;;;;;;;;;5011741;28;92424;-67
2022/03/10 12:31:09;;;;;;;34.60;20.17;;;;;;;;;;5013155;28;93289;-67
2022/03/10 12:33:50;;;;;;;28.52;20.02;;;;;;;;;;5010537;28;96565;-67
2022/03/10 12:36:30;;;;;;;31.33;20.80;;;;;;;;;;5011918;28;92980;-67
2022/03/10 12:38:58;;;;;;;37.38;19.55;;;;;;;;;;5012565;28;93787;-67
2022/03/10 12:41:28;;;;;;;33.40;18.60;;;;;;;;;;5012294;28;94311;-67
2022/03/10 12:43:58;;;;;;;31.33;19.80;;;;;;;;;;5012833;28;92836;-67
2022/03/10 12:46:25;;;;;;;32.70;20.13;;;;;;;;;;5011602;28;93097;-67
2022/03/10 12:48:58;;;;;;;28.27;19.42;;;;;;;;;;5015644;27;93606;-67
2022/03/10 12:51:29;;;;;;;29.33;18.75;;;;;;;;;;5012980;28;93106;-67
2022/03/10 12:53:56;;;;;;;28.83;18.83;;;;;;;;;;5012662;28;93380;-67
2022/03/10 12:56:22;;;;;;;24.17;17.25;;;;;;;;;;5010989;28;92844;-67
2022/03/10 12:58:49;;;;;;;24.33;15.48;;;;;;;;;;5010623;28;95369;-67
2022/03/10 13:01:16;;;;;;;26.88;17.35;;;;;;;;;;5012129;28;93411;-67
2022/03/10 13:03:53;;;;;;;27.67;18.38;;;;;;;;;;5011738;28;92751;-67
2022/03/10 13:06:24;;;;;;;27.10;18.25;;;;;;;;;;5012422;28;93212;-68
2022/03/10 13:08:55;;;;;;;26.40;18.23;;;;;;;;;;5012708;28;93440;-67
2022/03/10 13:11:22;;;;;;;25.42;18.30;;;;;;;;;;5014984;28;92538;-67
2022/03/10 13:14:07;;;;;;;27.63;16.85;;;;;;;;;;5012329;28;94244;-68
2022/03/10 13:16:34;;;;;;;32.63;17.55;;;;;;;;;;5012479;28;91727;-67
2022/03/10 13:19:01;;;;;;;20.20;16.20;;;;;;;;;;5011376;28;93594;-67
2022/03/10 13:21:27;;;;;;;26.92;17.38;;;;;;;;;;5011885;28;93463;-67
2022/03/10 13:23:54;;;;;;;27.75;17.25;;;;;;;;;;5009849;28;95875;-67
2022/03/10 13:26:21;;;;;;;21.83;16.55;;;;;;;;;;5012131;28;95589;-67
2022/03/10 13:28:47;;;;;;;23.85;16.98;;;;;;;;;;5011720;28;94264;-67
2022/03/10 13:31:13;;;;;;;26.17;17.67;;;;;;;;;;5010896;28;92445;-67
2022/03/10 13:33:40;;;;;;;25.50;16.88;;;;;;;;;;5015441;28;93143;-67
2022/03/10 13:36:06;;;;;;;25.15;15.45;;;;;;;;;;5012386;28;92928;-67
2022/03/10 13:38:33;;;;;;;23.42;16.20;;;;;;;;;;5011452;28;92937;-67
2022/03/10 13:41:02;;;;;;;22.08;16.75;;;;;;;;;;5012385;28;92565;-67
2022/03/10 13:43:32;;;;;;;23.10;15.65;;;;;;;;;;5011765;28;92468;-67
2022/03/10 13:46:08;;;;;;;24.17;17.17;;;;;;;;;;5011583;28;93018;-67
2022/03/10 13:48:34;;;;;;;21.80;16.38;;;;;;;;;;5009948;28;96905;-67
2022/03/10 13:51:04;;;;;;;32.28;18.48;;;;;;;;;;5011873;28;92471;-67
2022/03/10 13:53:30;;;;;;;25.40;17.35;;;;;;;;;;5010749;28;93847;-67
2022/03/10 13:55:58;;;;;;;25.23;15.95;;;;;;;;;;5014687;28;92366;-67
2022/03/10 13:58:25;;;;;;;23.25;17.30;;;;;;;;;;5011398;28;93418;-67
2022/03/10 14:00:52;;;;;;;25.90;18.25;;;;;;;;;;5010895;28;93415;-67
2022/03/10 14:03:21;;;;;;;27.08;17.92;;;;;;;;;;5011355;28;92644;-67
2022/03/10 14:05:49;;;;;;;27.95;17.70;;;;;;;;;;5012104;28;94126;-67
2022/03/10 14:08:18;;;;;;;23.25;16.60;;;;;;;;;;5011073;28;94325;-67
2022/03/10 14:10:45;;;;;;;25.42;17.88;;;;;;;;;;5015366;28;92562;-67
2022/03/10 14:13:12;;;;;;;24.58;16.35;;;;;;;;;;5011663;28;94889;-67
2022/03/10 14:15:40;;;;;;;26.58;18.20;;;;;;;;;;5015174;28;93255;-67
2022/03/10 14:18:08;;;;;;;34.28;19.38;;;;;;;;;;5018203;28;92345;-67
2022/03/10 14:20:38;;;;;;;18.40;13.60;;;;;;;;;;5014308;28;93675;-67
2022/03/10 14:23:08;;;;;;;27.65;17.30;;;;;;;;;;5014834;28;92630;-67
2022/03/10 14:25:38;;;;;;;22.30;17.65;;;;;;;;;;5014808;28;94105;-67